createdAt,value
2019-02-08T00:01:40.606Z,6.30
2019-02-08T00:04:09.672Z,6.40
2019-02-08T00:06:38.652Z,6.40
2019-02-08T00:09:13.346Z,6.40
2019-02-08T00:11:42.356Z,6.40
2019-02-08T00:14:11.565Z,6.40
2019-02-08T00:16:40.607Z,6.30
2019-02-08T00:19:09.608Z,6.30
2019-02-08T00:21:38.620Z,6.30
2019-02-08T00:24:07.607Z,6.20
2019-02-08T00:26:36.583Z,6.20
2019-02-08T00:29:05.938Z,6.10
2019-02-08T00:31:34.909Z,6.00
2019-02-08T00:34:07.002Z,6.00
2019-02-08T00:36:35.963Z,6.00
2019-02-08T00:39:10.171Z,6.00
2019-02-08T00:41:39.171Z,5.90
2019-02-08T00:44:08.439Z,5.90
2019-02-08T00:46:37.415Z,5.90
2019-02-08T00:49:06.389Z,5.90
2019-02-08T00:51:35.386Z,5.90
2019-02-08T00:54:11.927Z,5.80
2019-02-08T00:56:40.923Z,5.80
2019-02-08T00:59:10.170Z,5.80
2019-02-08T01:01:39.227Z,5.90
2019-02-08T01:04:08.229Z,5.90
2019-02-08T01:06:37.206Z,5.90
2019-02-08T01:09:12.407Z,5.90
2019-02-08T01:11:41.253Z,6.00
2019-02-08T01:14:10.639Z,6.10
2019-02-08T01:16:39.619Z,6.10
2019-02-08T01:19:08.633Z,6.10
2019-02-08T01:21:37.630Z,6.10
2019-02-08T01:24:06.610Z,6.10
2019-02-08T01:26:36.564Z,6.10
2019-02-08T01:29:05.664Z,6.20
2019-02-08T01:31:34.668Z,6.20
2019-02-08T01:34:06.000Z,6.20
2019-02-08T01:36:34.829Z,6.20
2019-02-08T01:39:05.300Z,6.20
2019-02-08T01:41:34.271Z,6.20
2019-02-08T01:44:03.280Z,6.20
2019-02-08T01:46:32.205Z,6.20
2019-02-08T01:49:01.191Z,6.20
2019-02-08T01:51:30.127Z,6.20
2019-02-08T01:53:59.078Z,6.20
2019-02-08T01:56:27.894Z,6.10
2019-02-08T01:58:56.808Z,6.10
2019-02-08T02:01:25.714Z,6.10
2019-02-08T02:03:54.934Z,6.00
2019-02-08T02:06:23.943Z,6.00
2019-02-08T02:08:52.918Z,6.00
2019-02-08T02:11:21.845Z,5.90
2019-02-08T02:13:50.753Z,5.90
2019-02-08T02:16:19.722Z,5.90
2019-02-08T02:18:48.711Z,5.90
2019-02-08T02:21:17.765Z,6.00
2019-02-08T02:23:46.744Z,6.00
2019-02-08T02:26:15.664Z,6.10
2019-02-08T02:28:44.938Z,6.10
2019-02-08T02:31:13.814Z,6.20
2019-02-08T02:33:42.768Z,6.20
2019-02-08T02:36:14.246Z,6.20
2019-02-08T02:38:43.212Z,6.30
2019-02-08T02:41:12.220Z,6.30
2019-02-08T02:43:41.229Z,6.30
2019-02-08T02:46:10.223Z,6.30
2019-02-08T02:48:39.139Z,6.40
2019-02-08T02:51:08.147Z,6.40
2019-02-08T02:53:37.106Z,6.40
2019-02-08T02:56:06.078Z,6.40
2019-02-08T02:58:36.294Z,6.40
2019-02-08T03:01:06.479Z,6.50
2019-02-08T03:03:35.376Z,6.50
2019-02-08T03:06:04.506Z,6.60
2019-02-08T03:08:33.484Z,6.60
2019-02-08T03:11:02.481Z,6.60
2019-02-08T03:13:31.412Z,6.70
2019-02-08T03:16:00.400Z,6.60
2019-02-08T03:18:29.364Z,6.70
2019-02-08T03:20:58.360Z,6.70
2019-02-08T03:23:27.341Z,6.70
2019-02-08T03:25:56.300Z,6.70
2019-02-08T03:28:25.220Z,6.70
2019-02-08T03:30:58.121Z,6.70
2019-02-08T03:33:27.300Z,6.80
2019-02-08T03:35:56.228Z,6.70
2019-02-08T03:38:25.200Z,6.70
2019-02-08T03:40:54.168Z,6.80
2019-02-08T03:43:23.210Z,6.80
2019-02-08T03:45:53.494Z,6.80
2019-02-08T03:48:22.500Z,6.80
2019-02-08T03:50:51.538Z,6.80
2019-02-08T03:53:20.519Z,6.80
2019-02-08T03:55:57.781Z,6.80
2019-02-08T03:58:20.205Z,6.80
2019-02-08T04:00:53.950Z,6.90
2019-02-08T04:03:22.932Z,6.90
2019-02-08T04:05:52.015Z,6.90
2019-02-08T04:08:21.009Z,6.90
2019-02-08T04:10:50.027Z,7.00
2019-02-08T04:13:19.023Z,7.00
2019-02-08T04:15:48.008Z,7.00
2019-02-08T04:18:16.937Z,7.00
2019-02-08T04:20:45.916Z,7.00
2019-02-08T04:23:14.903Z,7.00
2019-02-08T04:25:43.920Z,7.00
2019-02-08T04:28:12.765Z,7.00
2019-02-08T04:30:41.725Z,7.00
2019-02-08T04:33:10.703Z,7.00
2019-02-08T04:35:39.692Z,7.00
2019-02-08T04:38:08.676Z,6.90
2019-02-08T04:40:37.655Z,6.90
2019-02-08T04:43:06.629Z,6.90
2019-02-08T04:45:35.647Z,7.00
2019-02-08T04:48:04.764Z,7.00
2019-02-08T04:50:33.726Z,7.00
2019-02-08T04:53:02.725Z,7.00
2019-02-08T04:55:31.712Z,7.00
2019-02-08T04:58:00.627Z,7.00
2019-02-08T05:00:31.757Z,7.00
2019-02-08T05:03:00.721Z,7.00
2019-02-08T05:05:29.738Z,7.00
2019-02-08T05:07:58.729Z,7.00
2019-02-08T05:10:29.569Z,7.00
2019-02-08T05:12:58.741Z,7.00
2019-02-08T05:15:27.913Z,7.00
2019-02-08T05:17:56.934Z,7.00
2019-02-08T05:20:27.331Z,7.00
2019-02-08T05:22:56.307Z,7.00
2019-02-08T05:25:25.282Z,7.00
2019-02-08T05:27:56.605Z,7.10
2019-02-08T05:30:27.561Z,7.10
2019-02-08T05:32:56.749Z,7.10
2019-02-08T05:35:26.296Z,7.10
2019-02-08T05:37:55.296Z,7.10
2019-02-08T05:40:24.311Z,7.10
2019-02-08T05:42:53.374Z,7.10
2019-02-08T05:45:22.408Z,7.20
2019-02-08T05:47:51.504Z,7.20
2019-02-08T05:50:22.204Z,7.20
2019-02-08T05:52:51.171Z,7.20
2019-02-08T05:55:22.190Z,7.20
2019-02-08T05:57:51.157Z,7.30
2019-02-08T06:00:24.474Z,7.30
2019-02-08T06:02:53.447Z,7.30
2019-02-08T06:05:24.167Z,7.30
2019-02-08T06:07:53.162Z,7.30
2019-02-08T06:10:22.167Z,7.30
2019-02-08T06:12:51.204Z,7.30
2019-02-08T06:15:20.771Z,7.30
2019-02-08T06:17:49.859Z,7.30
2019-02-08T06:20:20.081Z,7.30
2019-02-08T06:22:49.316Z,7.40
2019-02-08T06:25:19.921Z,7.30
2019-02-08T06:27:49.287Z,7.40
2019-02-08T06:30:20.224Z,7.40
2019-02-08T06:32:49.211Z,7.40
2019-02-08T06:35:20.405Z,7.40
2019-02-08T06:37:49.553Z,7.40
2019-02-08T06:40:23.149Z,7.50
2019-02-08T06:42:52.680Z,7.50
2019-02-08T06:45:23.429Z,7.40
2019-02-08T06:47:52.931Z,7.50
2019-02-08T06:50:23.139Z,7.40
2019-02-08T06:52:52.831Z,7.50
2019-02-08T06:55:22.896Z,7.50
2019-02-08T06:58:01.426Z,7.50
2019-02-08T07:00:55.600Z,7.50
2019-02-08T07:03:37.332Z,7.50
2019-02-08T07:06:28.190Z,7.50
2019-02-08T07:09:10.637Z,7.50
2019-02-08T07:12:03.486Z,7.50
2019-02-08T07:14:50.316Z,7.50
2019-02-08T07:17:42.050Z,7.50
2019-02-08T07:20:22.280Z,7.50
2019-02-08T07:23:08.665Z,7.50
2019-02-08T07:25:55.139Z,7.50
2019-02-08T07:28:45.994Z,7.50
2019-02-08T07:31:42.808Z,7.50
2019-02-08T07:34:42.807Z,7.50
2019-02-08T07:37:30.959Z,7.60
2019-02-08T07:40:14.708Z,7.50
2019-02-08T07:43:09.039Z,7.60
2019-02-08T07:46:04.657Z,7.60
2019-02-08T07:48:51.749Z,7.60
2019-02-08T07:51:33.538Z,7.60
2019-02-08T07:54:23.023Z,7.70
2019-02-08T07:57:03.856Z,7.70
2019-02-08T07:59:41.848Z,7.70
2019-02-08T08:02:32.192Z,7.70
2019-02-08T08:05:11.700Z,7.80
2019-02-08T08:07:58.157Z,7.80
2019-02-08T08:10:35.528Z,7.80
2019-02-08T08:13:20.108Z,7.80
2019-02-08T08:15:58.621Z,7.90
2019-02-08T08:18:45.756Z,7.90
2019-02-08T08:21:29.224Z,7.90
2019-02-08T08:24:19.854Z,7.90
2019-02-08T08:27:14.605Z,8.00
2019-02-08T08:30:03.672Z,8.00
2019-02-08T08:32:39.457Z,8.00
2019-02-08T08:35:44.079Z,8.00
2019-02-08T08:39:08.247Z,8.00
2019-02-08T08:42:33.923Z,8.00
2019-02-08T08:45:54.914Z,8.00
2019-02-08T08:49:20.024Z,8.00
2019-02-08T08:52:30.303Z,8.10
2019-02-08T08:55:42.078Z,8.10
2019-02-08T08:58:37.752Z,8.10
2019-02-08T09:01:45.741Z,8.10
2019-02-08T09:04:46.600Z,8.10
2019-02-08T09:08:01.468Z,8.20
2019-02-08T09:11:18.708Z,8.30
2019-02-08T09:14:15.981Z,8.40
2019-02-08T09:17:23.880Z,8.40
2019-02-08T09:20:32.309Z,8.50
2019-02-08T09:23:18.621Z,8.50
2019-02-08T09:26:17.238Z,8.50
2019-02-08T09:29:48.375Z,8.60
2019-02-08T09:33:12.514Z,8.60
2019-02-08T09:36:21.195Z,8.60
2019-02-08T09:39:06.892Z,8.70
2019-02-08T09:42:18.644Z,8.70
2019-02-08T09:45:28.216Z,8.70
2019-02-08T09:48:23.875Z,8.80
2019-02-08T09:51:30.558Z,8.80
2019-02-08T09:54:22.465Z,8.80
2019-02-08T09:57:26.964Z,8.90
2019-02-08T10:00:47.760Z,8.90
2019-02-08T10:03:46.236Z,8.90
2019-02-08T10:06:35.539Z,9.00
2019-02-08T10:09:53.146Z,9.00
2019-02-08T10:13:11.091Z,9.10
2019-02-08T10:16:25.111Z,9.10
2019-02-08T10:19:45.929Z,9.10
2019-02-08T10:22:50.260Z,9.10
2019-02-08T10:26:05.642Z,9.10
2019-02-08T10:29:09.898Z,9.10
2019-02-08T10:32:18.476Z,9.10
2019-02-08T10:35:22.880Z,9.10
2019-02-08T10:38:15.329Z,9.10
2019-02-08T10:41:09.717Z,9.10
2019-02-08T10:44:19.759Z,9.20
2019-02-08T10:47:13.144Z,9.20
2019-02-08T10:50:46.970Z,9.20
2019-02-08T10:53:53.378Z,9.30
2019-02-08T10:57:05.997Z,9.30
2019-02-08T11:00:15.007Z,9.30
2019-02-08T11:03:23.749Z,9.30
2019-02-08T11:06:27.036Z,9.20
2019-02-08T11:09:49.360Z,9.20
2019-02-08T11:13:06.698Z,9.20
2019-02-08T11:16:16.268Z,9.30
2019-02-08T11:19:33.880Z,9.30
2019-02-08T11:22:02.879Z,9.40
2019-02-08T11:24:31.828Z,9.40
2019-02-08T11:27:01.573Z,9.50
2019-02-08T11:29:30.611Z,9.50
2019-02-08T11:32:00.014Z,9.50
2019-02-08T11:34:29.232Z,9.50
2019-02-08T11:36:58.313Z,9.60
2019-02-08T11:39:27.430Z,9.50
2019-02-08T11:41:56.482Z,9.50
2019-02-08T11:44:25.626Z,9.60
2019-02-08T11:46:54.987Z,9.60
2019-02-08T11:49:24.082Z,9.60
2019-02-08T11:51:53.098Z,9.70
2019-02-08T11:54:22.101Z,9.70
2019-02-08T11:56:51.169Z,9.70
2019-02-08T11:59:20.171Z,9.70
2019-02-08T12:01:50.296Z,9.70
2019-02-08T12:04:20.276Z,9.70
2019-02-08T12:06:49.305Z,9.70
2019-02-08T12:09:18.588Z,9.80
2019-02-08T12:11:47.724Z,9.80
2019-02-08T12:14:16.734Z,9.80
2019-02-08T12:16:45.711Z,9.80
2019-02-08T12:19:14.731Z,9.80
2019-02-08T12:21:43.719Z,9.80
2019-02-08T12:24:12.737Z,9.80
2019-02-08T12:26:41.769Z,9.90
2019-02-08T12:29:10.756Z,9.90
2019-02-08T12:31:39.737Z,9.90
2019-02-08T12:34:09.373Z,9.90
2019-02-08T12:36:38.619Z,9.90
2019-02-08T12:39:13.797Z,9.90
2019-02-08T12:41:42.985Z,10.00
2019-02-08T12:44:12.219Z,10.10
2019-02-08T12:46:41.205Z,10.10
2019-02-08T12:49:10.200Z,10.10
2019-02-08T12:51:39.200Z,10.10
2019-02-08T12:54:14.295Z,10.20
2019-02-08T12:56:45.632Z,10.20
2019-02-08T12:59:13.901Z,10.20
2019-02-08T13:01:42.821Z,10.20
2019-02-08T13:04:13.462Z,10.20
2019-02-08T13:06:45.433Z,10.30
2019-02-08T13:09:14.412Z,10.20
2019-02-08T13:11:43.396Z,10.10
2019-02-08T13:14:13.629Z,10.20
2019-02-08T13:16:42.587Z,10.10
2019-02-08T13:19:11.674Z,10.10
2019-02-08T13:21:41.819Z,10.10
2019-02-08T13:24:18.721Z,10.10
2019-02-08T13:26:52.763Z,10.10
2019-02-08T13:29:18.396Z,10.20
2019-02-08T13:31:50.067Z,10.20
2019-02-08T13:34:19.091Z,10.20
2019-02-08T13:36:51.736Z,10.30
2019-02-08T13:39:20.690Z,10.30
2019-02-08T13:41:49.663Z,10.30
2019-02-08T13:44:20.343Z,10.30
2019-02-08T13:46:49.405Z,10.30
2019-02-08T13:49:20.957Z,10.40
2019-02-08T13:51:53.816Z,10.30
2019-02-08T13:54:22.803Z,10.30
2019-02-08T13:57:00.370Z,10.30
2019-02-08T13:59:23.951Z,10.30
2019-02-08T14:01:52.888Z,10.30
2019-02-08T14:04:21.819Z,10.30
2019-02-08T14:06:50.813Z,10.30
2019-02-08T14:09:19.874Z,10.30
2019-02-08T14:11:48.877Z,10.40
2019-02-08T14:14:17.853Z,10.40
2019-02-08T14:16:46.901Z,10.40
2019-02-08T14:19:15.936Z,10.40
2019-02-08T14:21:44.881Z,10.40
2019-02-08T14:24:13.892Z,10.40
2019-02-08T14:26:42.898Z,10.30
2019-02-08T14:29:11.906Z,10.30
2019-02-08T14:31:44.962Z,10.40
2019-02-08T14:34:11.587Z,10.40
2019-02-08T14:36:42.870Z,10.40
2019-02-08T14:39:13.109Z,10.40
2019-02-08T14:41:42.108Z,10.40
2019-02-08T14:44:11.415Z,10.40
2019-02-08T14:46:40.399Z,10.40
2019-02-08T14:49:09.393Z,10.40
2019-02-08T14:51:38.384Z,10.30
2019-02-08T14:54:18.012Z,10.30
2019-02-08T14:56:47.000Z,10.30
2019-02-08T14:59:18.608Z,10.30
2019-02-08T15:01:47.477Z,10.20
2019-02-08T15:04:16.477Z,10.30
2019-02-08T15:06:45.471Z,10.30
2019-02-08T15:09:14.488Z,10.20
2019-02-08T15:11:47.388Z,10.20
2019-02-08T15:14:16.387Z,10.20
2019-02-08T15:16:45.363Z,10.20
2019-02-08T15:19:14.421Z,10.20
2019-02-08T15:21:43.385Z,10.20
2019-02-08T15:24:12.422Z,10.20
2019-02-08T15:26:42.809Z,10.20
2019-02-08T15:29:11.888Z,10.20
2019-02-08T15:31:42.956Z,10.10
2019-02-08T15:34:11.704Z,10.20
2019-02-08T15:36:40.878Z,10.20
2019-02-08T15:39:11.566Z,10.20
2019-02-08T15:41:40.559Z,10.20
2019-02-08T15:44:09.694Z,10.20
2019-02-08T15:46:38.748Z,10.20
2019-02-08T15:49:07.816Z,10.20
2019-02-08T15:51:36.895Z,10.10
2019-02-08T15:54:11.623Z,10.10
2019-02-08T15:56:40.665Z,10.20
2019-02-08T15:59:09.780Z,10.10
2019-02-08T16:01:38.871Z,10.10
2019-02-08T16:04:07.995Z,10.10
2019-02-08T16:06:37.030Z,10.10
2019-02-08T16:09:14.987Z,10.10
2019-02-08T16:11:45.221Z,10.10
2019-02-08T16:14:14.286Z,10.10
2019-02-08T16:16:43.305Z,10.10
2019-02-08T16:19:13.710Z,10.10
2019-02-08T16:21:42.723Z,10.10
2019-02-08T16:24:11.729Z,10.00
2019-02-08T16:26:40.883Z,10.10
2019-02-08T16:29:09.927Z,10.00
2019-02-08T16:31:38.932Z,10.00
2019-02-08T16:34:08.042Z,10.00
2019-02-08T16:36:37.094Z,9.90
2019-02-08T16:39:09.639Z,10.00
2019-02-08T16:41:39.429Z,10.00
2019-02-08T16:44:08.623Z,10.00
2019-02-08T16:46:37.482Z,10.00
2019-02-08T16:49:09.462Z,9.90
2019-02-08T16:51:39.193Z,10.00
2019-02-08T16:54:13.216Z,9.90
2019-02-08T16:56:42.289Z,9.90
2019-02-08T16:59:11.435Z,9.90
2019-02-08T17:01:40.446Z,10.00
2019-02-08T17:04:09.460Z,10.00
2019-02-08T17:06:38.472Z,10.00
2019-02-08T17:09:13.464Z,10.00
2019-02-08T17:11:42.444Z,10.00
2019-02-08T17:14:11.389Z,10.00
2019-02-08T17:16:40.371Z,10.00
2019-02-08T17:19:09.368Z,10.00
2019-02-08T17:21:38.413Z,10.00
2019-02-08T17:24:07.413Z,10.10
2019-02-08T17:26:36.465Z,10.10
2019-02-08T17:29:05.571Z,10.10
2019-02-08T17:31:34.600Z,10.10
2019-02-08T17:34:03.614Z,10.10
2019-02-08T17:36:32.606Z,10.10
2019-02-08T17:39:06.657Z,10.10
2019-02-08T17:41:35.725Z,10.10
2019-02-08T17:44:07.013Z,10.10
2019-02-08T17:46:37.410Z,10.10
2019-02-08T17:49:06.429Z,10.10
2019-02-08T17:51:38.039Z,10.10
2019-02-08T17:54:25.685Z,10.10
2019-02-08T17:56:55.661Z,10.10
2019-02-08T17:59:24.664Z,10.10
2019-02-08T18:01:53.802Z,10.10
2019-02-08T18:04:25.874Z,10.00
2019-02-08T18:06:54.903Z,10.00
2019-02-08T18:09:30.543Z,10.00
2019-02-08T18:11:59.549Z,10.00
2019-02-08T18:14:28.565Z,10.00
2019-02-08T18:16:57.415Z,10.00
2019-02-08T18:19:26.442Z,10.00
2019-02-08T18:21:55.808Z,10.00
2019-02-08T18:24:25.253Z,10.00
2019-02-08T18:26:54.483Z,10.00
2019-02-08T18:29:27.669Z,9.90
2019-02-08T18:31:57.662Z,9.90
2019-02-08T18:34:26.773Z,9.90
2019-02-08T18:36:55.822Z,9.90
2019-02-08T18:39:24.944Z,9.90
2019-02-08T18:41:53.969Z,9.90
2019-02-08T18:44:22.997Z,9.90
2019-02-08T18:46:51.921Z,9.90
2019-02-08T18:49:20.854Z,9.80
2019-02-08T18:51:51.203Z,9.90
2019-02-08T18:54:20.359Z,9.90
2019-02-08T18:56:49.314Z,9.80
2019-02-08T18:59:18.282Z,9.90
2019-02-08T19:01:47.364Z,9.90
2019-02-08T19:04:16.395Z,9.80
2019-02-08T19:06:45.387Z,9.80
2019-02-08T19:09:15.153Z,9.80
2019-02-08T19:11:44.184Z,9.80
2019-02-08T19:14:15.426Z,9.80
2019-02-08T19:16:44.720Z,9.70
2019-02-08T19:19:14.123Z,9.70
2019-02-08T19:21:43.054Z,9.70
2019-02-08T19:24:11.990Z,9.70
2019-02-08T19:26:40.915Z,9.60
2019-02-08T19:29:09.992Z,9.60
2019-02-08T19:31:41.470Z,9.60
2019-02-08T19:34:10.511Z,9.60
2019-02-08T19:36:39.928Z,9.60
2019-02-08T19:39:09.861Z,9.60
2019-02-08T19:41:38.868Z,9.60
2019-02-08T19:44:10.710Z,9.60
2019-02-08T19:46:39.985Z,9.50
2019-02-08T19:49:08.991Z,9.50
2019-02-08T19:51:39.413Z,9.50
2019-02-08T19:54:11.657Z,9.50
2019-02-08T19:56:40.653Z,9.50
2019-02-08T19:59:09.854Z,9.50
2019-02-08T20:01:40.795Z,9.50
2019-02-08T20:04:09.945Z,9.50
2019-02-08T20:06:39.047Z,9.40
2019-02-08T20:09:13.499Z,9.40
2019-02-08T20:11:56.312Z,9.40
2019-02-08T20:14:25.333Z,9.40
2019-02-08T20:16:54.369Z,9.40
2019-02-08T20:19:23.381Z,9.40
2019-02-08T20:21:52.515Z,9.40
2019-02-08T20:24:21.488Z,9.40
2019-02-08T20:26:50.555Z,9.40
2019-02-08T20:29:19.632Z,9.40
2019-02-08T20:31:48.700Z,9.40
2019-02-08T20:34:17.746Z,9.40
2019-02-08T20:36:46.906Z,9.50
2019-02-08T20:39:16.002Z,9.50
2019-02-08T20:41:44.947Z,9.50
2019-02-08T20:44:13.957Z,9.50
2019-02-08T20:46:42.987Z,9.50
2019-02-08T20:49:12.008Z,9.50
2019-02-08T20:51:41.321Z,9.50
2019-02-08T20:54:17.793Z,9.50
2019-02-08T20:56:47.041Z,9.50
2019-02-08T20:59:15.964Z,9.50
2019-02-08T21:01:44.943Z,9.50
2019-02-08T21:04:13.960Z,9.50
2019-02-08T21:06:43.197Z,9.60
2019-02-08T21:09:18.431Z,9.60
2019-02-08T21:11:47.759Z,9.60
2019-02-08T21:14:17.034Z,9.60
2019-02-08T21:16:46.167Z,9.60
2019-02-08T21:19:15.595Z,9.60
2019-02-08T21:21:46.249Z,9.60
2019-02-08T21:24:15.469Z,9.60
2019-02-08T21:26:46.365Z,9.60
2019-02-08T21:29:15.653Z,9.50
2019-02-08T21:31:44.827Z,9.50
2019-02-08T21:34:14.107Z,9.50
2019-02-08T21:36:43.485Z,9.50
2019-02-08T21:39:12.634Z,9.50
2019-02-08T21:41:42.148Z,9.50
2019-02-08T21:44:11.670Z,9.50
2019-02-08T21:46:40.833Z,9.50
2019-02-08T21:49:09.836Z,9.50
2019-02-08T21:51:41.203Z,9.60
2019-02-08T21:54:13.158Z,9.60
2019-02-08T21:56:42.332Z,9.60
2019-02-08T21:59:11.461Z,9.60
2019-02-08T22:01:40.458Z,9.60
2019-02-08T22:04:09.791Z,9.60
2019-02-08T22:06:38.927Z,9.60
2019-02-08T22:09:14.573Z,9.60
2019-02-08T22:11:43.678Z,9.70
2019-02-08T22:14:12.662Z,9.60
2019-02-08T22:16:41.718Z,9.70
2019-02-08T22:19:10.644Z,9.60
2019-02-08T22:21:39.753Z,9.60
2019-02-08T22:24:08.722Z,9.60
2019-02-08T22:26:37.889Z,9.60
2019-02-08T22:29:13.842Z,9.70
2019-02-08T22:31:37.838Z,9.70
2019-02-08T22:34:06.834Z,9.70
2019-02-08T22:36:36.021Z,9.70
2019-02-08T22:39:08.214Z,9.70
2019-02-08T22:41:37.459Z,9.70
2019-02-08T22:44:06.452Z,9.70
2019-02-08T22:46:35.569Z,9.60
2019-02-08T22:49:06.233Z,9.60
2019-02-08T22:51:35.275Z,9.60
2019-02-08T22:54:13.259Z,9.60
2019-02-08T22:56:43.847Z,9.60
2019-02-08T22:59:13.126Z,9.60
2019-02-08T23:01:49.308Z,9.60
2019-02-08T23:04:18.453Z,9.60
2019-02-08T23:06:47.398Z,9.60
2019-02-08T23:09:20.960Z,9.60
2019-02-08T23:11:49.958Z,9.60
2019-02-08T23:14:19.322Z,9.60
2019-02-08T23:17:20.135Z,9.60
2019-02-08T23:20:17.923Z,9.60
2019-02-08T23:22:47.018Z,9.50
2019-02-08T23:25:38.481Z,9.50
2019-02-08T23:28:09.245Z,9.50
2019-02-08T23:30:38.559Z,9.50
2019-02-08T23:33:07.799Z,9.50
2019-02-08T23:35:42.853Z,9.50
2019-02-08T23:38:08.172Z,9.50
2019-02-08T23:40:37.533Z,9.50
2019-02-08T23:43:08.512Z,9.50
2019-02-08T23:45:37.734Z,9.50
2019-02-08T23:48:08.896Z,9.50
2019-02-08T23:50:38.077Z,9.50
2019-02-08T23:53:08.050Z,9.50
2019-02-08T23:55:37.056Z,9.60
2019-02-08T23:58:06.701Z,9.50
